sensor_id;sensor_type;location;lat;lon;timestamp;temperature;humidity
314;DHT22;143;51.634;7.112;2023-03-11T00:00:39;2.70;1.00
314;DHT22;143;51.634;7.112;2023-03-11T00:03:06;2.50;1.00
314;DHT22;143;51.634;7.112;2023-03-11T00:05:35;2.60;1.00
314;DHT22;143;51.634;7.112;2023-03-11T00:08:01;2.70;1.00
314;DHT22;143;51.634;7.112;2023-03-11T00:10:32;2.60;1.00
314;DHT22;143;51.634;7.112;2023-03-11T00:12:58;3.00;1.00
314;DHT22;143;51.634;7.112;2023-03-11T00:15:25;3.00;1.00
314;DHT22;143;51.634;7.112;2023-03-11T00:17:51;3.00;1.00
314;DHT22;143;51.634;7.112;2023-03-11T00:20:26;3.10;1.00
314;DHT22;143;51.634;7.112;2023-03-11T00:22:53;3.00;1.00
314;DHT22;143;51.634;7.112;2023-03-11T00:25:20;3.10;1.00
314;DHT22;143;51.634;7.112;2023-03-11T00:27:46;3.00;1.00
314;DHT22;143;51.634;7.112;2023-03-11T00:30:13;2.80;1.00
314;DHT22;143;51.634;7.112;2023-03-11T00:32:39;2.80;1.00
314;DHT22;143;51.634;7.112;2023-03-11T00:35:05;3.10;1.00
314;DHT22;143;51.634;7.112;2023-03-11T00:37:31;3.00;1.00
314;DHT22;143;51.634;7.112;2023-03-11T00:39:58;3.10;1.00
314;DHT22;143;51.634;7.112;2023-03-11T00:42:24;3.00;1.00
314;DHT22;143;51.634;7.112;2023-03-11T00:44:49;2.80;1.00
314;DHT22;143;51.634;7.112;2023-03-11T00:47:15;3.10;1.00
314;DHT22;143;51.634;7.112;2023-03-11T00:49:41;3.00;1.00
314;DHT22;143;51.634;7.112;2023-03-11T00:52:07;2.80;1.00
314;DHT22;143;51.634;7.112;2023-03-11T00:54:33;2.80;1.00
314;DHT22;143;51.634;7.112;2023-03-11T00:56:59;2.80;1.00
314;DHT22;143;51.634;7.112;2023-03-11T00:59:24;3.10;1.00
314;DHT22;143;51.634;7.112;2023-03-11T01:01:50;2.80;1.00
314;DHT22;143;51.634;7.112;2023-03-11T01:04:16;3.10;1.00
314;DHT22;143;51.634;7.112;2023-03-11T01:06:41;3.00;1.00
314;DHT22;143;51.634;7.112;2023-03-11T01:09:07;3.10;1.00
314;DHT22;143;51.634;7.112;2023-03-11T01:11:33;3.00;1.00
314;DHT22;143;51.634;7.112;2023-03-11T01:13:58;3.00;1.00
314;DHT22;143;51.634;7.112;2023-03-11T01:16:24;3.10;1.00
314;DHT22;143;51.634;7.112;2023-03-11T01:18:50;3.00;1.00
314;DHT22;143;51.634;7.112;2023-03-11T01:21:16;2.70;1.00
314;DHT22;143;51.634;7.112;2023-03-11T01:23:41;3.10;1.00
314;DHT22;143;51.634;7.112;2023-03-11T01:26:07;3.00;1.00
314;DHT22;143;51.634;7.112;2023-03-11T01:28:33;2.80;1.00
314;DHT22;143;51.634;7.112;2023-03-11T01:30:59;2.80;1.00
314;DHT22;143;51.634;7.112;2023-03-11T01:33:25;3.00;1.00
314;DHT22;143;51.634;7.112;2023-03-11T01:35:50;3.00;1.00
314;DHT22;143;51.634;7.112;2023-03-11T01:38:16;2.60;1.00
314;DHT22;143;51.634;7.112;2023-03-11T01:40:45;2.80;1.00
314;DHT22;143;51.634;7.112;2023-03-11T01:48:36;3.10;1.00
314;DHT22;143;51.634;7.112;2023-03-11T01:51:04;3.20;1.00
314;DHT22;143;51.634;7.112;2023-03-11T01:53:31;2.90;1.00
314;DHT22;143;51.634;7.112;2023-03-11T01:55:57;3.00;1.00
314;DHT22;143;51.634;7.112;2023-03-11T01:58:25;3.00;1.00
314;DHT22;143;51.634;7.112;2023-03-11T02:00:51;3.10;1.00
314;DHT22;143;51.634;7.112;2023-03-11T02:03:26;3.00;1.00
314;DHT22;143;51.634;7.112;2023-03-11T02:05:55;2.60;1.00
314;DHT22;143;51.634;7.112;2023-03-11T02:08:22;2.90;1.00
314;DHT22;143;51.634;7.112;2023-03-11T02:10:49;3.00;1.00
314;DHT22;143;51.634;7.112;2023-03-11T02:13:17;3.10;1.00
314;DHT22;143;51.634;7.112;2023-03-11T02:15:43;3.00;1.00
314;DHT22;143;51.634;7.112;2023-03-11T02:18:12;2.70;1.00
314;DHT22;143;51.634;7.112;2023-03-11T02:23:28;2.80;1.00
314;DHT22;143;51.634;7.112;2023-03-11T02:26:10;3.10;1.00
314;DHT22;143;51.634;7.112;2023-03-11T02:28:39;3.00;1.00
314;DHT22;143;51.634;7.112;2023-03-11T02:31:05;3.10;1.00
314;DHT22;143;51.634;7.112;2023-03-11T02:33:33;3.00;1.00
314;DHT22;143;51.634;7.112;2023-03-11T02:36:01;3.00;1.00
314;DHT22;143;51.634;7.112;2023-03-11T02:38:26;3.10;1.00
314;DHT22;143;51.634;7.112;2023-03-11T02:40:59;3.00;1.00
314;DHT22;143;51.634;7.112;2023-03-11T02:43:39;2.70;1.00
314;DHT22;143;51.634;7.112;2023-03-11T02:46:06;2.60;1.00
314;DHT22;143;51.634;7.112;2023-03-11T02:48:35;2.80;1.00
314;DHT22;143;51.634;7.112;2023-03-11T02:51:01;2.70;1.00
314;DHT22;143;51.634;7.112;2023-03-11T02:53:30;2.60;1.00
314;DHT22;143;51.634;7.112;2023-03-11T02:55:57;2.30;1.00
314;DHT22;143;51.634;7.112;2023-03-11T02:58:23;2.50;1.00
314;DHT22;143;51.634;7.112;2023-03-11T03:00:49;2.30;1.00
314;DHT22;143;51.634;7.112;2023-03-11T03:03:15;2.30;1.00
314;DHT22;143;51.634;7.112;2023-03-11T03:05:40;2.40;1.00
314;DHT22;143;51.634;7.112;2023-03-11T03:08:06;2.30;1.00
314;DHT22;143;51.634;7.112;2023-03-11T03:10:32;2.20;1.00
314;DHT22;143;51.634;7.112;2023-03-11T03:12:58;2.20;1.00
314;DHT22;143;51.634;7.112;2023-03-11T03:15:23;2.20;1.00
314;DHT22;143;51.634;7.112;2023-03-11T03:17:49;2.30;1.00
314;DHT22;143;51.634;7.112;2023-03-11T03:20:16;2.20;1.00
314;DHT22;143;51.634;7.112;2023-03-11T03:22:43;2.30;1.00
314;DHT22;143;51.634;7.112;2023-03-11T03:25:09;2.70;1.00
314;DHT22;143;51.634;7.112;2023-03-11T03:27:35;2.40;1.00
314;DHT22;143;51.634;7.112;2023-03-11T03:30:02;2.30;1.00
314;DHT22;143;51.634;7.112;2023-03-11T03:32:27;2.60;1.00
314;DHT22;143;51.634;7.112;2023-03-11T03:34:53;2.30;1.00
314;DHT22;143;51.634;7.112;2023-03-11T03:37:26;2.60;1.00
314;DHT22;143;51.634;7.112;2023-03-11T03:39:53;2.30;1.00
314;DHT22;143;51.634;7.112;2023-03-11T03:42:19;2.70;1.00
314;DHT22;143;51.634;7.112;2023-03-11T03:44:45;2.50;1.00
314;DHT22;143;51.634;7.112;2023-03-11T03:47:11;2.70;1.00
314;DHT22;143;51.634;7.112;2023-03-11T03:49:36;2.40;1.00
314;DHT22;143;51.634;7.112;2023-03-11T03:52:05;2.50;1.00
314;DHT22;143;51.634;7.112;2023-03-11T03:54:31;2.60;1.00
314;DHT22;143;51.634;7.112;2023-03-11T03:56:57;2.50;1.00
314;DHT22;143;51.634;7.112;2023-03-11T03:59:23;2.70;1.00
314;DHT22;143;51.634;7.112;2023-03-11T04:01:49;2.60;1.00
314;DHT22;143;51.634;7.112;2023-03-11T04:04:14;2.50;1.00
314;DHT22;143;51.634;7.112;2023-03-11T04:06:41;2.70;1.00
314;DHT22;143;51.634;7.112;2023-03-11T04:09:09;2.50;1.00
314;DHT22;143;51.634;7.112;2023-03-11T04:11:35;2.70;1.00
314;DHT22;143;51.634;7.112;2023-03-11T04:14:01;2.60;1.00
314;DHT22;143;51.634;7.112;2023-03-11T04:16:27;2.50;1.00
314;DHT22;143;51.634;7.112;2023-03-11T04:18:53;2.60;1.00
314;DHT22;143;51.634;7.112;2023-03-11T04:21:19;2.70;1.00
314;DHT22;143;51.634;7.112;2023-03-11T04:23:45;2.60;1.00
314;DHT22;143;51.634;7.112;2023-03-11T04:26:10;2.80;1.00
314;DHT22;143;51.634;7.112;2023-03-11T04:28:36;2.70;1.00
314;DHT22;143;51.634;7.112;2023-03-11T04:31:02;2.60;1.00
314;DHT22;143;51.634;7.112;2023-03-11T04:33:28;2.70;1.00
314;DHT22;143;51.634;7.112;2023-03-11T04:35:53;2.60;1.00
314;DHT22;143;51.634;7.112;2023-03-11T04:38:19;2.50;1.00
314;DHT22;143;51.634;7.112;2023-03-11T04:40:45;2.70;1.00
314;DHT22;143;51.634;7.112;2023-03-11T04:43:10;2.50;1.00
314;DHT22;143;51.634;7.112;2023-03-11T04:45:40;2.80;1.00
314;DHT22;143;51.634;7.112;2023-03-11T04:48:07;2.70;1.00
314;DHT22;143;51.634;7.112;2023-03-11T04:50:33;2.50;1.00
314;DHT22;143;51.634;7.112;2023-03-11T04:52:59;2.80;1.00
314;DHT22;143;51.634;7.112;2023-03-11T04:55:24;2.70;1.00
314;DHT22;143;51.634;7.112;2023-03-11T04:57:50;2.60;1.00
314;DHT22;143;51.634;7.112;2023-03-11T05:00:16;2.80;1.00
314;DHT22;143;51.634;7.112;2023-03-11T05:02:46;2.70;1.00
314;DHT22;143;51.634;7.112;2023-03-11T05:05:12;2.50;1.00
314;DHT22;143;51.634;7.112;2023-03-11T05:07:37;2.70;1.00
314;DHT22;143;51.634;7.112;2023-03-11T05:10:04;2.80;1.00
314;DHT22;143;51.634;7.112;2023-03-11T05:12:30;2.60;1.00
314;DHT22;143;51.634;7.112;2023-03-11T05:14:56;2.50;1.00
314;DHT22;143;51.634;7.112;2023-03-11T05:17:21;2.70;1.00
314;DHT22;143;51.634;7.112;2023-03-11T05:19:49;2.60;1.00
314;DHT22;143;51.634;7.112;2023-03-11T05:22:15;2.50;1.00
314;DHT22;143;51.634;7.112;2023-03-11T05:24:41;2.70;1.00
314;DHT22;143;51.634;7.112;2023-03-11T05:27:06;2.40;1.00
314;DHT22;143;51.634;7.112;2023-03-11T05:29:32;2.30;1.00
314;DHT22;143;51.634;7.112;2023-03-11T05:31:58;2.50;1.00
314;DHT22;143;51.634;7.112;2023-03-11T05:34:23;2.50;1.00
314;DHT22;143;51.634;7.112;2023-03-11T05:36:49;2.50;1.00
314;DHT22;143;51.634;7.112;2023-03-11T05:39:15;2.30;1.00
314;DHT22;143;51.634;7.112;2023-03-11T05:41:41;2.20;1.00
314;DHT22;143;51.634;7.112;2023-03-11T05:44:07;2.30;1.00
314;DHT22;143;51.634;7.112;2023-03-11T05:46:33;2.50;1.00
314;DHT22;143;51.634;7.112;2023-03-11T05:48:59;2.50;1.00
314;DHT22;143;51.634;7.112;2023-03-11T05:51:25;2.20;1.00
314;DHT22;143;51.634;7.112;2023-03-11T05:53:50;2.30;1.00
314;DHT22;143;51.634;7.112;2023-03-11T05:56:18;2.70;1.00
314;DHT22;143;51.634;7.112;2023-03-11T05:58:44;2.60;1.00
314;DHT22;143;51.634;7.112;2023-03-11T06:01:11;2.50;1.00
314;DHT22;143;51.634;7.112;2023-03-11T06:03:38;2.50;1.00
314;DHT22;143;51.634;7.112;2023-03-11T06:06:05;2.70;1.00
314;DHT22;143;51.634;7.112;2023-03-11T06:08:32;2.50;1.00
314;DHT22;143;51.634;7.112;2023-03-11T06:11:07;2.60;1.00
314;DHT22;143;51.634;7.112;2023-03-11T06:13:34;2.50;1.00
314;DHT22;143;51.634;7.112;2023-03-11T06:16:00;2.70;1.00
314;DHT22;143;51.634;7.112;2023-03-11T06:18:26;2.50;1.00
314;DHT22;143;51.634;7.112;2023-03-11T06:20:52;2.80;1.00
314;DHT22;143;51.634;7.112;2023-03-11T06:23:18;2.60;1.00
314;DHT22;143;51.634;7.112;2023-03-11T06:25:53;2.80;1.00
314;DHT22;143;51.634;7.112;2023-03-11T06:28:19;2.80;1.00
314;DHT22;143;51.634;7.112;2023-03-11T06:30:45;2.60;1.00
314;DHT22;143;51.634;7.112;2023-03-11T06:33:10;2.80;1.00
314;DHT22;143;51.634;7.112;2023-03-11T06:35:36;2.50;1.00
314;DHT22;143;51.634;7.112;2023-03-11T06:38:01;2.80;1.00
314;DHT22;143;51.634;7.112;2023-03-11T06:40:27;3.00;1.00
314;DHT22;143;51.634;7.112;2023-03-11T06:42:53;2.50;1.00
314;DHT22;143;51.634;7.112;2023-03-11T06:45:18;3.00;1.00
314;DHT22;143;51.634;7.112;2023-03-11T06:47:44;2.60;1.00
314;DHT22;143;51.634;7.112;2023-03-11T06:50:10;2.80;1.00
314;DHT22;143;51.634;7.112;2023-03-11T06:52:36;2.70;1.00
314;DHT22;143;51.634;7.112;2023-03-11T06:55:02;2.50;1.00
314;DHT22;143;51.634;7.112;2023-03-11T06:57:28;2.50;1.00
314;DHT22;143;51.634;7.112;2023-03-11T06:59:55;2.80;1.00
314;DHT22;143;51.634;7.112;2023-03-11T07:02:21;2.70;1.00
314;DHT22;143;51.634;7.112;2023-03-11T07:04:49;2.60;1.00
314;DHT22;143;51.634;7.112;2023-03-11T07:07:15;2.60;1.00
314;DHT22;143;51.634;7.112;2023-03-11T07:09:41;2.70;1.00
314;DHT22;143;51.634;7.112;2023-03-11T07:12:07;2.50;1.00
314;DHT22;143;51.634;7.112;2023-03-11T07:14:33;2.60;1.00
314;DHT22;143;51.634;7.112;2023-03-11T07:16:59;3.00;1.00
314;DHT22;143;51.634;7.112;2023-03-11T07:19:25;3.00;1.00
314;DHT22;143;51.634;7.112;2023-03-11T07:21:50;3.10;1.00
314;DHT22;143;51.634;7.112;2023-03-11T07:24:16;3.00;1.00
314;DHT22;143;51.634;7.112;2023-03-11T07:26:42;3.10;1.00
314;DHT22;143;51.634;7.112;2023-03-11T07:29:08;3.00;1.00
314;DHT22;143;51.634;7.112;2023-03-11T07:31:35;3.10;1.00
314;DHT22;143;51.634;7.112;2023-03-11T07:34:04;2.90;1.00
314;DHT22;143;51.634;7.112;2023-03-11T07:36:31;2.90;1.00
314;DHT22;143;51.634;7.112;2023-03-11T07:38:59;3.20;1.00
314;DHT22;143;51.634;7.112;2023-03-11T07:41:27;3.30;1.00
314;DHT22;143;51.634;7.112;2023-03-11T07:43:55;3.20;1.00
314;DHT22;143;51.634;7.112;2023-03-11T07:46:21;3.30;1.00
314;DHT22;143;51.634;7.112;2023-03-11T07:48:48;3.40;1.00
314;DHT22;143;51.634;7.112;2023-03-11T07:51:21;3.50;1.00
314;DHT22;143;51.634;7.112;2023-03-11T07:53:48;3.60;1.00
314;DHT22;143;51.634;7.112;2023-03-11T07:56:16;3.40;1.00
314;DHT22;143;51.634;7.112;2023-03-11T07:58:43;3.50;1.00
314;DHT22;143;51.634;7.112;2023-03-11T08:01:17;3.50;1.00
314;DHT22;143;51.634;7.112;2023-03-11T08:03:45;3.70;1.00
314;DHT22;143;51.634;7.112;2023-03-11T08:06:21;3.70;1.00
314;DHT22;143;51.634;7.112;2023-03-11T08:08:47;3.70;1.00
314;DHT22;143;51.634;7.112;2023-03-11T08:11:14;3.80;1.00
314;DHT22;143;51.634;7.112;2023-03-11T08:13:41;4.00;1.00
314;DHT22;143;51.634;7.112;2023-03-11T08:16:08;4.10;1.00
314;DHT22;143;51.634;7.112;2023-03-11T08:18:34;4.30;1.00
314;DHT22;143;51.634;7.112;2023-03-11T08:21:10;4.10;1.00
314;DHT22;143;51.634;7.112;2023-03-11T08:23:36;4.30;1.00
314;DHT22;143;51.634;7.112;2023-03-11T08:26:10;4.60;1.00
314;DHT22;143;51.634;7.112;2023-03-11T08:28:36;4.50;1.00
314;DHT22;143;51.634;7.112;2023-03-11T08:31:08;4.70;99.90
314;DHT22;143;51.634;7.112;2023-03-11T08:33:36;4.70;99.90
314;DHT22;143;51.634;7.112;2023-03-11T08:36:01;4.50;99.90
314;DHT22;143;51.634;7.112;2023-03-11T08:38:27;4.50;99.90
314;DHT22;143;51.634;7.112;2023-03-11T08:40:53;5.10;99.90
314;DHT22;143;51.634;7.112;2023-03-11T08:43:18;5.10;99.90
314;DHT22;143;51.634;7.112;2023-03-11T08:45:44;5.10;99.90
314;DHT22;143;51.634;7.112;2023-03-11T08:48:11;5.10;99.90
314;DHT22;143;51.634;7.112;2023-03-11T08:50:40;5.40;99.90
314;DHT22;143;51.634;7.112;2023-03-11T08:53:06;5.30;99.90
314;DHT22;143;51.634;7.112;2023-03-11T08:55:31;5.60;99.90
314;DHT22;143;51.634;7.112;2023-03-11T08:57:57;5.80;99.90
314;DHT22;143;51.634;7.112;2023-03-11T09:00:23;5.80;99.90
314;DHT22;143;51.634;7.112;2023-03-11T09:02:48;6.10;99.90
314;DHT22;143;51.634;7.112;2023-03-11T09:05:15;6.10;99.90
314;DHT22;143;51.634;7.112;2023-03-11T09:07:41;6.40;99.90
314;DHT22;143;51.634;7.112;2023-03-11T09:10:07;6.30;99.90
314;DHT22;143;51.634;7.112;2023-03-11T09:12:34;6.60;99.90
314;DHT22;143;51.634;7.112;2023-03-11T09:15:00;6.70;99.90
314;DHT22;143;51.634;7.112;2023-03-11T09:17:26;6.70;99.90
314;DHT22;143;51.634;7.112;2023-03-11T09:19:52;6.90;99.90
314;DHT22;143;51.634;7.112;2023-03-11T09:22:17;7.00;99.90
314;DHT22;143;51.634;7.112;2023-03-11T09:24:43;7.00;99.70
314;DHT22;143;51.634;7.112;2023-03-11T09:27:09;7.20;99.90
314;DHT22;143;51.634;7.112;2023-03-11T09:29:35;7.30;34.20
314;DHT22;143;51.634;7.112;2023-03-11T09:32:01;7.50;8.00
314;DHT22;143;51.634;7.112;2023-03-11T09:34:26;7.50;13.00
314;DHT22;143;51.634;7.112;2023-03-11T09:36:52;7.40;41.80
314;DHT22;143;51.634;7.112;2023-03-11T09:39:18;7.80;28.30
314;DHT22;143;51.634;7.112;2023-03-11T09:44:27;8.20;1.00
314;DHT22;143;51.634;7.112;2023-03-11T09:52:32;8.20;1.00
314;DHT22;143;51.634;7.112;2023-03-11T09:55:04;8.30;1.00
314;DHT22;143;51.634;7.112;2023-03-11T09:57:36;8.90;1.00
314;DHT22;143;51.634;7.112;2023-03-11T10:00:05;8.90;1.00
314;DHT22;143;51.634;7.112;2023-03-11T10:02:31;9.20;1.00
314;DHT22;143;51.634;7.112;2023-03-11T10:05:07;9.30;1.00
314;DHT22;143;51.634;7.112;2023-03-11T10:07:40;9.40;1.00
314;DHT22;143;51.634;7.112;2023-03-11T10:10:11;9.50;1.00
314;DHT22;143;51.634;7.112;2023-03-11T10:26:48;10.10;1.00
314;DHT22;143;51.634;7.112;2023-03-11T10:29:28;10.30;1.00
314;DHT22;143;51.634;7.112;2023-03-11T10:32:26;9.90;1.00
314;DHT22;143;51.634;7.112;2023-03-11T10:35:02;10.00;1.00
314;DHT22;143;51.634;7.112;2023-03-11T10:37:39;9.80;1.00
314;DHT22;143;51.634;7.112;2023-03-11T10:40:36;9.90;1.00
314;DHT22;143;51.634;7.112;2023-03-11T10:43:47;10.20;1.00
314;DHT22;143;51.634;7.112;2023-03-11T10:46:36;10.20;1.00
314;DHT22;143;51.634;7.112;2023-03-11T10:49:02;10.60;1.00
314;DHT22;143;51.634;7.112;2023-03-11T10:51:33;10.90;1.00
314;DHT22;143;51.634;7.112;2023-03-11T10:54:01;10.90;1.00
314;DHT22;143;51.634;7.112;2023-03-11T10:56:36;11.50;1.00
314;DHT22;143;51.634;7.112;2023-03-11T10:59:05;11.90;1.00
314;DHT22;143;51.634;7.112;2023-03-11T11:01:31;12.00;1.00
314;DHT22;143;51.634;7.112;2023-03-11T11:03:59;11.80;1.00
314;DHT22;143;51.634;7.112;2023-03-11T11:06:34;11.50;1.00
314;DHT22;143;51.634;7.112;2023-03-11T11:09:16;11.40;1.00
314;DHT22;143;51.634;7.112;2023-03-11T11:14:51;11.50;1.00
314;DHT22;143;51.634;7.112;2023-03-11T11:17:27;11.60;1.00
314;DHT22;143;51.634;7.112;2023-03-11T11:19:54;12.00;1.00
314;DHT22;143;51.634;7.112;2023-03-11T11:22:22;12.40;1.00
314;DHT22;143;51.634;7.112;2023-03-11T11:24:50;12.80;1.00
314;DHT22;143;51.634;7.112;2023-03-11T11:27:20;13.00;1.00
314;DHT22;143;51.634;7.112;2023-03-11T11:30:02;13.20;1.00
314;DHT22;143;51.634;7.112;2023-03-11T11:32:28;13.20;1.00
314;DHT22;143;51.634;7.112;2023-03-11T11:35:05;13.20;1.00
314;DHT22;143;51.634;7.112;2023-03-11T11:37:34;13.20;1.00
314;DHT22;143;51.634;7.112;2023-03-11T11:40:13;13.10;1.00
314;DHT22;143;51.634;7.112;2023-03-11T11:42:49;12.90;1.00
314;DHT22;143;51.634;7.112;2023-03-11T11:45:33;12.60;1.00
314;DHT22;143;51.634;7.112;2023-03-11T11:51:15;12.00;1.00
314;DHT22;143;51.634;7.112;2023-03-11T11:53:58;11.70;1.00
314;DHT22;143;51.634;7.112;2023-03-11T11:56:26;11.60;1.00
314;DHT22;143;51.634;7.112;2023-03-11T11:58:52;11.40;1.00
314;DHT22;143;51.634;7.112;2023-03-11T12:01:45;11.30;1.00
314;DHT22;143;51.634;7.112;2023-03-11T12:09:32;11.40;1.00
314;DHT22;143;51.634;7.112;2023-03-11T12:12:07;11.40;1.00
314;DHT22;143;51.634;7.112;2023-03-11T12:15:09;11.60;1.00
314;DHT22;143;51.634;7.112;2023-03-11T12:17:40;11.60;1.00
314;DHT22;143;51.634;7.112;2023-03-11T12:28:31;11.90;1.00
314;DHT22;143;51.634;7.112;2023-03-11T12:31:02;12.10;1.00
314;DHT22;143;51.634;7.112;2023-03-11T12:33:33;12.30;1.00
314;DHT22;143;51.634;7.112;2023-03-11T12:36:02;12.20;1.00
314;DHT22;143;51.634;7.112;2023-03-11T12:38:45;12.30;1.00
314;DHT22;143;51.634;7.112;2023-03-11T12:49:14;12.00;1.00
314;DHT22;143;51.634;7.112;2023-03-11T12:54:34;11.60;1.00
314;DHT22;143;51.634;7.112;2023-03-11T12:57:03;12.00;1.00
314;DHT22;143;51.634;7.112;2023-03-11T13:08:33;12.00;1.00
314;DHT22;143;51.634;7.112;2023-03-11T13:11:24;11.90;1.00
314;DHT22;143;51.634;7.112;2023-03-11T13:13:49;12.00;1.00
314;DHT22;143;51.634;7.112;2023-03-11T13:18:41;12.50;1.00
314;DHT22;143;51.634;7.112;2023-03-11T13:23:55;13.00;1.00
314;DHT22;143;51.634;7.112;2023-03-11T13:26:46;13.40;1.00
314;DHT22;143;51.634;7.112;2023-03-11T13:40:45;13.90;1.00
314;DHT22;143;51.634;7.112;2023-03-11T13:43:20;13.70;1.00
314;DHT22;143;51.634;7.112;2023-03-11T13:46:13;13.80;1.00
314;DHT22;143;51.634;7.112;2023-03-11T13:48:43;13.80;1.00
314;DHT22;143;51.634;7.112;2023-03-11T13:51:36;13.90;1.00
314;DHT22;143;51.634;7.112;2023-03-11T13:54:21;14.10;1.00
314;DHT22;143;51.634;7.112;2023-03-11T13:56:58;14.20;1.00
314;DHT22;143;51.634;7.112;2023-03-11T13:59:30;14.10;1.00
314;DHT22;143;51.634;7.112;2023-03-11T14:02:24;13.90;1.00
314;DHT22;143;51.634;7.112;2023-03-11T14:05:01;13.70;1.00
314;DHT22;143;51.634;7.112;2023-03-11T14:07:33;13.80;1.00
314;DHT22;143;51.634;7.112;2023-03-11T14:12:40;14.20;1.00
314;DHT22;143;51.634;7.112;2023-03-11T14:17:42;14.40;1.00
314;DHT22;143;51.634;7.112;2023-03-11T14:20:16;14.50;1.00
314;DHT22;143;51.634;7.112;2023-03-11T14:22:53;14.50;1.00
314;DHT22;143;51.634;7.112;2023-03-11T14:25:27;14.30;1.00
314;DHT22;143;51.634;7.112;2023-03-11T14:27:59;14.20;1.00
314;DHT22;143;51.634;7.112;2023-03-11T14:30:28;14.10;1.00
314;DHT22;143;51.634;7.112;2023-03-11T14:33:15;14.00;1.00
314;DHT22;143;51.634;7.112;2023-03-11T14:35:51;13.90;1.00
314;DHT22;143;51.634;7.112;2023-03-11T14:38:40;13.60;1.00
314;DHT22;143;51.634;7.112;2023-03-11T14:41:09;13.20;1.00
314;DHT22;143;51.634;7.112;2023-03-11T14:43:41;12.80;1.00
314;DHT22;143;51.634;7.112;2023-03-11T14:46:17;12.60;1.00
314;DHT22;143;51.634;7.112;2023-03-11T14:48:44;12.50;1.00
314;DHT22;143;51.634;7.112;2023-03-11T14:51:18;12.30;1.00
314;DHT22;143;51.634;7.112;2023-03-11T14:53:52;12.20;1.00
314;DHT22;143;51.634;7.112;2023-03-11T14:56:24;12.00;1.00
314;DHT22;143;51.634;7.112;2023-03-11T15:01:30;11.80;1.00
314;DHT22;143;51.634;7.112;2023-03-11T15:04:11;11.70;1.00
314;DHT22;143;51.634;7.112;2023-03-11T15:06:42;11.70;1.00
314;DHT22;143;51.634;7.112;2023-03-11T15:09:17;11.70;1.00
314;DHT22;143;51.634;7.112;2023-03-11T15:11:54;11.50;1.00
314;DHT22;143;51.634;7.112;2023-03-11T15:14:27;11.40;1.00
314;DHT22;143;51.634;7.112;2023-03-11T15:16:54;11.30;1.00
314;DHT22;143;51.634;7.112;2023-03-11T15:21:52;11.10;1.00
314;DHT22;143;51.634;7.112;2023-03-11T15:24:24;11.00;1.00
314;DHT22;143;51.634;7.112;2023-03-11T15:29:27;11.00;1.00
314;DHT22;143;51.634;7.112;2023-03-11T15:31:53;11.00;1.00
314;DHT22;143;51.634;7.112;2023-03-11T15:34:30;11.00;1.00
314;DHT22;143;51.634;7.112;2023-03-11T15:37:00;11.20;1.00
314;DHT22;143;51.634;7.112;2023-03-11T15:39:40;11.10;1.00
314;DHT22;143;51.634;7.112;2023-03-11T15:42:14;10.90;1.00
314;DHT22;143;51.634;7.112;2023-03-11T15:47:16;10.90;1.00
314;DHT22;143;51.634;7.112;2023-03-11T15:49:43;10.70;1.00
314;DHT22;143;51.634;7.112;2023-03-11T15:52:09;10.70;1.00
314;DHT22;143;51.634;7.112;2023-03-11T15:54:35;10.70;1.00
314;DHT22;143;51.634;7.112;2023-03-11T15:57:04;10.40;1.00
314;DHT22;143;51.634;7.112;2023-03-11T15:59:31;10.40;1.00
314;DHT22;143;51.634;7.112;2023-03-11T16:01:57;10.20;1.00
314;DHT22;143;51.634;7.112;2023-03-11T16:04:24;10.30;1.00
314;DHT22;143;51.634;7.112;2023-03-11T16:06:50;10.30;1.00
314;DHT22;143;51.634;7.112;2023-03-11T16:09:16;10.30;1.00
314;DHT22;143;51.634;7.112;2023-03-11T16:11:42;10.20;1.00
314;DHT22;143;51.634;7.112;2023-03-11T16:14:19;10.30;1.00
314;DHT22;143;51.634;7.112;2023-03-11T16:16:45;10.30;1.00
314;DHT22;143;51.634;7.112;2023-03-11T16:19:12;10.30;1.00
314;DHT22;143;51.634;7.112;2023-03-11T16:21:43;10.30;1.00
314;DHT22;143;51.634;7.112;2023-03-11T16:24:20;10.20;1.00
314;DHT22;143;51.634;7.112;2023-03-11T16:26:47;10.10;1.00
314;DHT22;143;51.634;7.112;2023-03-11T16:29:13;10.10;1.00
314;DHT22;143;51.634;7.112;2023-03-11T16:31:40;10.10;1.00
314;DHT22;143;51.634;7.112;2023-03-11T16:34:05;9.90;1.00
314;DHT22;143;51.634;7.112;2023-03-11T16:36:31;10.00;1.00
314;DHT22;143;51.634;7.112;2023-03-11T16:38:57;10.00;1.00
314;DHT22;143;51.634;7.112;2023-03-11T16:41:22;10.10;1.00
314;DHT22;143;51.634;7.112;2023-03-11T16:43:48;9.60;1.00
314;DHT22;143;51.634;7.112;2023-03-11T16:46:14;9.70;1.00
314;DHT22;143;51.634;7.112;2023-03-11T16:48:39;9.70;1.00
314;DHT22;143;51.634;7.112;2023-03-11T16:51:05;9.40;1.00
314;DHT22;143;51.634;7.112;2023-03-11T16:53:31;9.70;1.00
314;DHT22;143;51.634;7.112;2023-03-11T16:55:56;9.60;1.00
314;DHT22;143;51.634;7.112;2023-03-11T16:58:23;9.30;1.00
314;DHT22;143;51.634;7.112;2023-03-11T17:00:49;9.40;1.00
314;DHT22;143;51.634;7.112;2023-03-11T17:03:19;9.30;1.00
314;DHT22;143;51.634;7.112;2023-03-11T17:05:49;9.30;1.00
314;DHT22;143;51.634;7.112;2023-03-11T17:08:15;9.10;1.00
314;DHT22;143;51.634;7.112;2023-03-11T17:10:43;9.30;1.00
314;DHT22;143;51.634;7.112;2023-03-11T17:13:12;9.20;1.00
314;DHT22;143;51.634;7.112;2023-03-11T17:15:38;8.90;1.00
314;DHT22;143;51.634;7.112;2023-03-11T17:18:07;8.70;1.00
314;DHT22;143;51.634;7.112;2023-03-11T17:20:32;8.90;1.00
314;DHT22;143;51.634;7.112;2023-03-11T17:22:59;8.90;1.00
314;DHT22;143;51.634;7.112;2023-03-11T17:25:25;8.70;1.00
314;DHT22;143;51.634;7.112;2023-03-11T17:27:51;8.40;1.00
314;DHT22;143;51.634;7.112;2023-03-11T17:30:17;8.40;1.00
314;DHT22;143;51.634;7.112;2023-03-11T17:32:44;8.00;1.00
314;DHT22;143;51.634;7.112;2023-03-11T17:35:10;7.90;1.00
314;DHT22;143;51.634;7.112;2023-03-11T17:37:35;8.00;1.00
314;DHT22;143;51.634;7.112;2023-03-11T17:40:01;7.90;1.00
314;DHT22;143;51.634;7.112;2023-03-11T17:42:27;7.80;1.00
314;DHT22;143;51.634;7.112;2023-03-11T17:44:55;7.80;1.00
314;DHT22;143;51.634;7.112;2023-03-11T17:47:22;7.60;1.00
314;DHT22;143;51.634;7.112;2023-03-11T17:49:51;7.30;1.00
314;DHT22;143;51.634;7.112;2023-03-11T17:52:16;7.30;1.00
314;DHT22;143;51.634;7.112;2023-03-11T17:54:43;7.30;1.00
314;DHT22;143;51.634;7.112;2023-03-11T17:57:09;7.10;1.00
314;DHT22;143;51.634;7.112;2023-03-11T17:59:34;7.00;1.00
314;DHT22;143;51.634;7.112;2023-03-11T18:02:00;7.00;1.00
314;DHT22;143;51.634;7.112;2023-03-11T18:04:26;7.10;1.00
314;DHT22;143;51.634;7.112;2023-03-11T18:06:53;7.00;1.00
314;DHT22;143;51.634;7.112;2023-03-11T18:09:18;6.70;1.00
314;DHT22;143;51.634;7.112;2023-03-11T18:11:44;6.90;1.00
314;DHT22;143;51.634;7.112;2023-03-11T18:14:10;6.80;1.00
314;DHT22;143;51.634;7.112;2023-03-11T18:16:37;6.60;1.00
314;DHT22;143;51.634;7.112;2023-03-11T18:19:03;6.70;1.00
314;DHT22;143;51.634;7.112;2023-03-11T18:21:29;6.70;1.00
314;DHT22;143;51.634;7.112;2023-03-11T18:23:57;6.70;1.00
314;DHT22;143;51.634;7.112;2023-03-11T18:26:25;6.70;1.00
314;DHT22;143;51.634;7.112;2023-03-11T18:28:52;6.60;1.00
314;DHT22;143;51.634;7.112;2023-03-11T18:31:21;6.60;1.00
314;DHT22;143;51.634;7.112;2023-03-11T18:33:59;6.70;1.00
314;DHT22;143;51.634;7.112;2023-03-11T18:36:35;6.50;1.00
314;DHT22;143;51.634;7.112;2023-03-11T18:39:02;6.70;1.00
314;DHT22;143;51.634;7.112;2023-03-11T18:41:33;6.70;1.00
314;DHT22;143;51.634;7.112;2023-03-11T18:44:00;6.50;1.00
314;DHT22;143;51.634;7.112;2023-03-11T18:46:27;6.70;1.00
314;DHT22;143;51.634;7.112;2023-03-11T18:48:54;6.40;1.00
314;DHT22;143;51.634;7.112;2023-03-11T18:51:22;6.70;1.00
314;DHT22;143;51.634;7.112;2023-03-11T18:53:48;6.70;1.00
314;DHT22;143;51.634;7.112;2023-03-11T18:56:16;6.70;1.00